sensor_id;sensor_type;location;lat;lon;timestamp;temperature;humidity
12622;DHT22;6376;48.182;-1.644;2022-12-11T00:02:19;8.40;68.70
12622;DHT22;6376;48.182;-1.644;2022-12-11T00:04:45;8.40;68.60
12622;DHT22;6376;48.182;-1.644;2022-12-11T00:07:10;8.40;68.70
12622;DHT22;6376;48.182;-1.644;2022-12-11T00:09:36;8.40;68.70
12622;DHT22;6376;48.182;-1.644;2022-12-11T00:12:02;8.40;68.70
12622;DHT22;6376;48.182;-1.644;2022-12-11T00:14:30;8.40;68.60
12622;DHT22;6376;48.182;-1.644;2022-12-11T00:16:56;8.40;68.70
12622;DHT22;6376;48.182;-1.644;2022-12-11T00:19:22;8.40;68.60
12622;DHT22;6376;48.182;-1.644;2022-12-11T00:21:47;8.40;68.60
12622;DHT22;6376;48.182;-1.644;2022-12-11T00:24:13;8.40;68.60
12622;DHT22;6376;48.182;-1.644;2022-12-11T00:26:39;8.40;68.60
12622;DHT22;6376;48.182;-1.644;2022-12-11T00:29:04;8.40;68.60
12622;DHT22;6376;48.182;-1.644;2022-12-11T00:31:32;8.40;68.60
12622;DHT22;6376;48.182;-1.644;2022-12-11T00:34:00;8.40;68.70
12622;DHT22;6376;48.182;-1.644;2022-12-11T00:36:26;8.40;68.70
12622;DHT22;6376;48.182;-1.644;2022-12-11T00:38:52;8.40;68.60
12622;DHT22;6376;48.182;-1.644;2022-12-11T00:41:19;8.40;68.70
12622;DHT22;6376;48.182;-1.644;2022-12-11T00:43:45;8.40;68.60
12622;DHT22;6376;48.182;-1.644;2022-12-11T00:46:11;8.40;68.80
12622;DHT22;6376;48.182;-1.644;2022-12-11T00:48:37;8.40;68.70
12622;DHT22;6376;48.182;-1.644;2022-12-11T00:51:03;8.40;68.80
12622;DHT22;6376;48.182;-1.644;2022-12-11T00:53:29;8.40;68.80
12622;DHT22;6376;48.182;-1.644;2022-12-11T00:55:55;8.40;68.80
12622;DHT22;6376;48.182;-1.644;2022-12-11T00:58:21;8.40;68.80
12622;DHT22;6376;48.182;-1.644;2022-12-11T01:00:47;8.30;68.70
12622;DHT22;6376;48.182;-1.644;2022-12-11T01:03:15;8.30;68.80
12622;DHT22;6376;48.182;-1.644;2022-12-11T01:05:49;8.30;68.60
12622;DHT22;6376;48.182;-1.644;2022-12-11T01:08:14;8.30;68.80
12622;DHT22;6376;48.182;-1.644;2022-12-11T01:10:40;8.30;68.80
12622;DHT22;6376;48.182;-1.644;2022-12-11T01:13:06;8.30;68.90
12622;DHT22;6376;48.182;-1.644;2022-12-11T01:15:37;8.30;68.70
12622;DHT22;6376;48.182;-1.644;2022-12-11T01:18:03;8.30;68.80
12622;DHT22;6376;48.182;-1.644;2022-12-11T01:20:29;8.30;69.40
12622;DHT22;6376;48.182;-1.644;2022-12-11T01:22:56;8.30;68.70
12622;DHT22;6376;48.182;-1.644;2022-12-11T01:25:23;8.30;68.90
12622;DHT22;6376;48.182;-1.644;2022-12-11T01:27:53;8.30;69.00
12622;DHT22;6376;48.182;-1.644;2022-12-11T01:30:21;8.30;69.00
12622;DHT22;6376;48.182;-1.644;2022-12-11T01:32:47;8.30;68.90
12622;DHT22;6376;48.182;-1.644;2022-12-11T01:35:14;8.30;68.90
12622;DHT22;6376;48.182;-1.644;2022-12-11T01:37:40;8.30;68.80
12622;DHT22;6376;48.182;-1.644;2022-12-11T01:40:07;8.30;68.90
12622;DHT22;6376;48.182;-1.644;2022-12-11T01:42:33;8.20;68.90
12622;DHT22;6376;48.182;-1.644;2022-12-11T01:45:22;8.20;68.90
12622;DHT22;6376;48.182;-1.644;2022-12-11T01:50:28;8.20;69.00
12622;DHT22;6376;48.182;-1.644;2022-12-11T01:52:56;8.20;69.00
12622;DHT22;6376;48.182;-1.644;2022-12-11T01:55:22;8.20;69.00
12622;DHT22;6376;48.182;-1.644;2022-12-11T01:57:49;8.20;68.90
12622;DHT22;6376;48.182;-1.644;2022-12-11T02:00:15;8.20;68.90
12622;DHT22;6376;48.182;-1.644;2022-12-11T02:02:41;8.20;69.00
12622;DHT22;6376;48.182;-1.644;2022-12-11T02:05:07;8.20;68.90
12622;DHT22;6376;48.182;-1.644;2022-12-11T02:07:44;8.20;69.00
12622;DHT22;6376;48.182;-1.644;2022-12-11T02:10:11;8.20;68.90
12622;DHT22;6376;48.182;-1.644;2022-12-11T02:12:57;8.20;69.00
12622;DHT22;6376;48.182;-1.644;2022-12-11T02:15:32;8.10;69.00
12622;DHT22;6376;48.182;-1.644;2022-12-11T02:18:28;8.20;69.10
12622;DHT22;6376;48.182;-1.644;2022-12-11T02:21:24;8.20;69.10
12622;DHT22;6376;48.182;-1.644;2022-12-11T02:30:07;8.10;69.00
12622;DHT22;6376;48.182;-1.644;2022-12-11T02:35:33;8.10;69.10
12622;DHT22;6376;48.182;-1.644;2022-12-11T02:38:04;8.10;68.90
12622;DHT22;6376;48.182;-1.644;2022-12-11T02:40:34;8.10;69.10
12622;DHT22;6376;48.182;-1.644;2022-12-11T02:43:04;8.10;69.10
12622;DHT22;6376;48.182;-1.644;2022-12-11T02:45:32;8.10;69.10
12622;DHT22;6376;48.182;-1.644;2022-12-11T02:48:02;8.10;69.10
12622;DHT22;6376;48.182;-1.644;2022-12-11T02:50:29;8.10;69.20
12622;DHT22;6376;48.182;-1.644;2022-12-11T02:52:56;8.10;69.10
12622;DHT22;6376;48.182;-1.644;2022-12-11T02:55:25;8.10;69.10
12622;DHT22;6376;48.182;-1.644;2022-12-11T02:58:01;8.10;69.10
12622;DHT22;6376;48.182;-1.644;2022-12-11T03:00:29;8.10;69.30
12622;DHT22;6376;48.182;-1.644;2022-12-11T03:02:56;8.10;69.10
12622;DHT22;6376;48.182;-1.644;2022-12-11T03:05:22;8.00;68.90
12622;DHT22;6376;48.182;-1.644;2022-12-11T03:07:48;8.00;69.10
12622;DHT22;6376;48.182;-1.644;2022-12-11T03:10:16;8.10;69.20
12622;DHT22;6376;48.182;-1.644;2022-12-11T03:12:45;8.10;69.10
12622;DHT22;6376;48.182;-1.644;2022-12-11T03:15:18;8.10;69.20
12622;DHT22;6376;48.182;-1.644;2022-12-11T03:17:53;8.00;69.10
12622;DHT22;6376;48.182;-1.644;2022-12-11T03:20:29;8.00;69.00
12622;DHT22;6376;48.182;-1.644;2022-12-11T03:23:21;8.00;69.20
12622;DHT22;6376;48.182;-1.644;2022-12-11T03:25:58;8.00;69.20
12622;DHT22;6376;48.182;-1.644;2022-12-11T03:28:37;8.00;69.20
12622;DHT22;6376;48.182;-1.644;2022-12-11T03:31:08;8.00;69.10
12622;DHT22;6376;48.182;-1.644;2022-12-11T03:33:38;8.00;69.20
12622;DHT22;6376;48.182;-1.644;2022-12-11T03:36:17;8.00;69.20
12622;DHT22;6376;48.182;-1.644;2022-12-11T03:38:51;8.00;69.20
12622;DHT22;6376;48.182;-1.644;2022-12-11T03:41:19;8.00;69.20
12622;DHT22;6376;48.182;-1.644;2022-12-11T03:43:48;8.00;69.00
12622;DHT22;6376;48.182;-1.644;2022-12-11T03:46:18;8.00;69.20
12622;DHT22;6376;48.182;-1.644;2022-12-11T03:48:45;8.00;69.20
12622;DHT22;6376;48.182;-1.644;2022-12-11T03:51:13;8.00;69.10
12622;DHT22;6376;48.182;-1.644;2022-12-11T03:53:39;8.00;69.20
12622;DHT22;6376;48.182;-1.644;2022-12-11T03:56:07;8.00;69.20
12622;DHT22;6376;48.182;-1.644;2022-12-11T03:58:33;8.00;69.20
12622;DHT22;6376;48.182;-1.644;2022-12-11T04:00:59;8.00;69.20
12622;DHT22;6376;48.182;-1.644;2022-12-11T04:03:24;8.00;69.10
12622;DHT22;6376;48.182;-1.644;2022-12-11T04:05:52;8.00;69.20
12622;DHT22;6376;48.182;-1.644;2022-12-11T04:08:18;8.00;69.10
12622;DHT22;6376;48.182;-1.644;2022-12-11T04:10:48;8.00;69.20
12622;DHT22;6376;48.182;-1.644;2022-12-11T04:13:34;8.00;69.10
12622;DHT22;6376;48.182;-1.644;2022-12-11T04:16:00;8.00;69.10
12622;DHT22;6376;48.182;-1.644;2022-12-11T04:18:25;8.00;69.20
12622;DHT22;6376;48.182;-1.644;2022-12-11T04:21:10;8.00;69.20
12622;DHT22;6376;48.182;-1.644;2022-12-11T04:23:54;8.00;69.20
12622;DHT22;6376;48.182;-1.644;2022-12-11T04:26:38;8.00;69.20
12622;DHT22;6376;48.182;-1.644;2022-12-11T04:29:03;8.00;69.00
12622;DHT22;6376;48.182;-1.644;2022-12-11T04:31:29;7.90;69.00
12622;DHT22;6376;48.182;-1.644;2022-12-11T04:33:55;8.00;69.40
12622;DHT22;6376;48.182;-1.644;2022-12-11T04:36:20;8.00;69.30
12622;DHT22;6376;48.182;-1.644;2022-12-11T04:38:46;8.00;69.20
12622;DHT22;6376;48.182;-1.644;2022-12-11T04:41:13;7.90;69.10
12622;DHT22;6376;48.182;-1.644;2022-12-11T04:43:39;8.00;69.40
12622;DHT22;6376;48.182;-1.644;2022-12-11T04:46:11;8.00;69.30
12622;DHT22;6376;48.182;-1.644;2022-12-11T04:48:38;7.90;69.00
12622;DHT22;6376;48.182;-1.644;2022-12-11T04:51:04;8.00;69.20
12622;DHT22;6376;48.182;-1.644;2022-12-11T04:53:30;7.90;69.10
12622;DHT22;6376;48.182;-1.644;2022-12-11T04:55:56;7.90;69.00
12622;DHT22;6376;48.182;-1.644;2022-12-11T04:58:23;7.90;69.20
12622;DHT22;6376;48.182;-1.644;2022-12-11T05:00:49;7.90;69.10
12622;DHT22;6376;48.182;-1.644;2022-12-11T05:03:15;8.00;69.30
12622;DHT22;6376;48.182;-1.644;2022-12-11T05:05:49;8.00;69.30
12622;DHT22;6376;48.182;-1.644;2022-12-11T05:08:16;7.90;69.10
12622;DHT22;6376;48.182;-1.644;2022-12-11T05:10:41;7.90;69.20
12622;DHT22;6376;48.182;-1.644;2022-12-11T05:13:07;8.00;69.40
12622;DHT22;6376;48.182;-1.644;2022-12-11T05:15:33;7.90;69.10
12622;DHT22;6376;48.182;-1.644;2022-12-11T05:17:58;7.90;69.30
12622;DHT22;6376;48.182;-1.644;2022-12-11T05:20:24;7.90;69.30
12622;DHT22;6376;48.182;-1.644;2022-12-11T05:22:49;7.90;69.30
12622;DHT22;6376;48.182;-1.644;2022-12-11T05:25:15;7.90;69.30
12622;DHT22;6376;48.182;-1.644;2022-12-11T05:27:41;7.90;69.30
12622;DHT22;6376;48.182;-1.644;2022-12-11T05:30:07;7.90;69.30
12622;DHT22;6376;48.182;-1.644;2022-12-11T05:32:34;7.90;69.10
12622;DHT22;6376;48.182;-1.644;2022-12-11T05:35:00;7.90;69.20
12622;DHT22;6376;48.182;-1.644;2022-12-11T05:37:26;7.90;69.30
12622;DHT22;6376;48.182;-1.644;2022-12-11T05:39:51;7.90;69.20
12622;DHT22;6376;48.182;-1.644;2022-12-11T05:42:17;7.90;69.10
12622;DHT22;6376;48.182;-1.644;2022-12-11T05:44:43;7.90;69.10
12622;DHT22;6376;48.182;-1.644;2022-12-11T05:47:08;7.90;69.40
12622;DHT22;6376;48.182;-1.644;2022-12-11T05:49:34;7.90;69.20
12622;DHT22;6376;48.182;-1.644;2022-12-11T05:51:59;7.90;69.30
12622;DHT22;6376;48.182;-1.644;2022-12-11T05:54:25;7.90;69.10
12622;DHT22;6376;48.182;-1.644;2022-12-11T05:56:51;7.80;69.40
12622;DHT22;6376;48.182;-1.644;2022-12-11T05:59:16;7.90;69.50
12622;DHT22;6376;48.182;-1.644;2022-12-11T06:01:44;7.90;69.40
12622;DHT22;6376;48.182;-1.644;2022-12-11T06:04:10;7.90;69.40
12622;DHT22;6376;48.182;-1.644;2022-12-11T06:06:37;7.90;69.30
12622;DHT22;6376;48.182;-1.644;2022-12-11T06:09:03;7.90;69.40
12622;DHT22;6376;48.182;-1.644;2022-12-11T06:11:30;7.90;69.40
12622;DHT22;6376;48.182;-1.644;2022-12-11T06:13:56;7.80;69.40
12622;DHT22;6376;48.182;-1.644;2022-12-11T06:16:23;7.90;69.50
12622;DHT22;6376;48.182;-1.644;2022-12-11T06:18:49;7.90;69.40
12622;DHT22;6376;48.182;-1.644;2022-12-11T06:21:31;7.90;69.40
12622;DHT22;6376;48.182;-1.644;2022-12-11T06:23:59;7.80;69.30
12622;DHT22;6376;48.182;-1.644;2022-12-11T06:26:26;7.90;69.40
12622;DHT22;6376;48.182;-1.644;2022-12-11T06:28:52;7.80;69.30
12622;DHT22;6376;48.182;-1.644;2022-12-11T06:31:18;7.80;69.40
12622;DHT22;6376;48.182;-1.644;2022-12-11T06:33:44;7.90;69.40
12622;DHT22;6376;48.182;-1.644;2022-12-11T06:36:13;7.90;69.50
12622;DHT22;6376;48.182;-1.644;2022-12-11T06:38:39;7.90;69.40
12622;DHT22;6376;48.182;-1.644;2022-12-11T06:41:06;7.90;69.40
12622;DHT22;6376;48.182;-1.644;2022-12-11T06:43:34;7.90;69.50
12622;DHT22;6376;48.182;-1.644;2022-12-11T06:46:08;7.90;69.40
12622;DHT22;6376;48.182;-1.644;2022-12-11T06:48:34;7.90;69.40
12622;DHT22;6376;48.182;-1.644;2022-12-11T06:51:08;7.90;69.30
12622;DHT22;6376;48.182;-1.644;2022-12-11T06:53:34;7.90;69.40
12622;DHT22;6376;48.182;-1.644;2022-12-11T06:56:07;7.90;69.30
12622;DHT22;6376;48.182;-1.644;2022-12-11T06:58:34;7.90;69.50
12622;DHT22;6376;48.182;-1.644;2022-12-11T07:01:00;7.90;69.50
12622;DHT22;6376;48.182;-1.644;2022-12-11T07:03:26;7.90;69.50
12622;DHT22;6376;48.182;-1.644;2022-12-11T07:05:52;8.30;69.80
12622;DHT22;6376;48.182;-1.644;2022-12-11T07:08:18;7.90;69.40
12622;DHT22;6376;48.182;-1.644;2022-12-11T07:10:44;7.90;69.50
12622;DHT22;6376;48.182;-1.644;2022-12-11T07:13:09;7.90;69.40
12622;DHT22;6376;48.182;-1.644;2022-12-11T07:15:35;7.80;69.40
12622;DHT22;6376;48.182;-1.644;2022-12-11T07:18:01;7.80;69.50
12622;DHT22;6376;48.182;-1.644;2022-12-11T07:20:27;7.90;69.60
12622;DHT22;6376;48.182;-1.644;2022-12-11T07:22:53;7.90;69.40
12622;DHT22;6376;48.182;-1.644;2022-12-11T07:25:19;7.90;69.40
12622;DHT22;6376;48.182;-1.644;2022-12-11T07:27:44;7.90;69.40
12622;DHT22;6376;48.182;-1.644;2022-12-11T07:30:11;7.80;69.30
12622;DHT22;6376;48.182;-1.644;2022-12-11T07:32:36;7.80;69.50
12622;DHT22;6376;48.182;-1.644;2022-12-11T07:35:03;7.80;69.40
12622;DHT22;6376;48.182;-1.644;2022-12-11T07:37:28;7.80;69.60
12622;DHT22;6376;48.182;-1.644;2022-12-11T07:39:54;7.80;69.50
12622;DHT22;6376;48.182;-1.644;2022-12-11T07:42:20;7.80;69.40
12622;DHT22;6376;48.182;-1.644;2022-12-11T07:44:45;7.80;69.50
12622;DHT22;6376;48.182;-1.644;2022-12-11T07:47:11;7.80;69.50
12622;DHT22;6376;48.182;-1.644;2022-12-11T07:49:36;7.80;69.60
12622;DHT22;6376;48.182;-1.644;2022-12-11T07:52:03;7.90;69.60
12622;DHT22;6376;48.182;-1.644;2022-12-11T07:54:28;7.80;69.50
12622;DHT22;6376;48.182;-1.644;2022-12-11T07:56:54;7.80;69.60
12622;DHT22;6376;48.182;-1.644;2022-12-11T07:59:20;7.80;69.40
12622;DHT22;6376;48.182;-1.644;2022-12-11T08:01:45;7.80;69.40
12622;DHT22;6376;48.182;-1.644;2022-12-11T08:04:11;7.80;69.50
12622;DHT22;6376;48.182;-1.644;2022-12-11T08:06:40;7.80;69.60
12622;DHT22;6376;48.182;-1.644;2022-12-11T08:09:09;7.80;69.40
12622;DHT22;6376;48.182;-1.644;2022-12-11T08:11:35;7.80;69.60
12622;DHT22;6376;48.182;-1.644;2022-12-11T08:14:01;7.80;69.60
12622;DHT22;6376;48.182;-1.644;2022-12-11T08:16:27;7.80;69.60
12622;DHT22;6376;48.182;-1.644;2022-12-11T08:18:53;7.80;69.60
12622;DHT22;6376;48.182;-1.644;2022-12-11T08:21:21;7.80;69.50
12622;DHT22;6376;48.182;-1.644;2022-12-11T08:23:48;7.80;69.60
12622;DHT22;6376;48.182;-1.644;2022-12-11T08:26:17;7.80;70.30
12622;DHT22;6376;48.182;-1.644;2022-12-11T08:28:43;7.80;69.70
12622;DHT22;6376;48.182;-1.644;2022-12-11T08:31:11;7.80;69.60
12622;DHT22;6376;48.182;-1.644;2022-12-11T08:33:38;7.80;69.60
12622;DHT22;6376;48.182;-1.644;2022-12-11T08:36:06;7.80;69.70
12622;DHT22;6376;48.182;-1.644;2022-12-11T08:38:33;7.90;69.50
12622;DHT22;6376;48.182;-1.644;2022-12-11T08:41:10;7.80;69.40
12622;DHT22;6376;48.182;-1.644;2022-12-11T08:43:35;7.80;69.60
12622;DHT22;6376;48.182;-1.644;2022-12-11T08:46:01;7.80;69.60
12622;DHT22;6376;48.182;-1.644;2022-12-11T08:48:27;7.90;69.70
12622;DHT22;6376;48.182;-1.644;2022-12-11T08:50:52;7.90;69.60
12622;DHT22;6376;48.182;-1.644;2022-12-11T08:53:18;7.80;69.60
12622;DHT22;6376;48.182;-1.644;2022-12-11T08:55:44;7.90;69.60
12622;DHT22;6376;48.182;-1.644;2022-12-11T08:58:09;7.90;69.70
12622;DHT22;6376;48.182;-1.644;2022-12-11T09:00:35;7.90;69.40
12622;DHT22;6376;48.182;-1.644;2022-12-11T09:03:01;7.80;69.60
12622;DHT22;6376;48.182;-1.644;2022-12-11T09:05:26;7.90;69.70
12622;DHT22;6376;48.182;-1.644;2022-12-11T09:07:52;7.90;69.70
12622;DHT22;6376;48.182;-1.644;2022-12-11T09:10:18;7.80;69.60
12622;DHT22;6376;48.182;-1.644;2022-12-11T09:12:43;7.90;69.60
12622;DHT22;6376;48.182;-1.644;2022-12-11T09:15:09;7.90;70.20
12622;DHT22;6376;48.182;-1.644;2022-12-11T09:17:35;8.00;69.50
12622;DHT22;6376;48.182;-1.644;2022-12-11T09:20:01;8.00;69.40
12622;DHT22;6376;48.182;-1.644;2022-12-11T09:22:27;8.00;69.20
12622;DHT22;6376;48.182;-1.644;2022-12-11T09:24:52;8.00;69.20
12622;DHT22;6376;48.182;-1.644;2022-12-11T09:27:18;8.00;69.30
12622;DHT22;6376;48.182;-1.644;2022-12-11T09:29:46;8.00;69.40
12622;DHT22;6376;48.182;-1.644;2022-12-11T09:32:11;8.00;69.40
12622;DHT22;6376;48.182;-1.644;2022-12-11T09:34:37;8.00;69.50
12622;DHT22;6376;48.182;-1.644;2022-12-11T09:37:02;7.90;69.40
12622;DHT22;6376;48.182;-1.644;2022-12-11T09:39:28;7.90;69.30
12622;DHT22;6376;48.182;-1.644;2022-12-11T09:45:04;7.90;69.40
12622;DHT22;6376;48.182;-1.644;2022-12-11T09:47:44;7.90;69.50
12622;DHT22;6376;48.182;-1.644;2022-12-11T09:55:22;7.90;69.40
12622;DHT22;6376;48.182;-1.644;2022-12-11T09:58:13;7.90;69.60
12622;DHT22;6376;48.182;-1.644;2022-12-11T10:00:47;7.90;69.60
12622;DHT22;6376;48.182;-1.644;2022-12-11T10:09:18;7.90;69.50
12622;DHT22;6376;48.182;-1.644;2022-12-11T10:17:31;7.90;69.60
12622;DHT22;6376;48.182;-1.644;2022-12-11T10:23:12;7.90;69.60
12622;DHT22;6376;48.182;-1.644;2022-12-11T10:25:43;7.90;69.60
12622;DHT22;6376;48.182;-1.644;2022-12-11T10:28:14;7.90;69.70
12622;DHT22;6376;48.182;-1.644;2022-12-11T10:31:08;7.90;69.60
12622;DHT22;6376;48.182;-1.644;2022-12-11T10:33:44;7.90;69.70
12622;DHT22;6376;48.182;-1.644;2022-12-11T10:36:19;7.90;69.50
12622;DHT22;6376;48.182;-1.644;2022-12-11T10:38:45;8.00;69.80
12622;DHT22;6376;48.182;-1.644;2022-12-11T10:41:19;7.90;69.60
12622;DHT22;6376;48.182;-1.644;2022-12-11T10:43:51;8.00;69.70
12622;DHT22;6376;48.182;-1.644;2022-12-11T10:46:26;8.00;69.70
12622;DHT22;6376;48.182;-1.644;2022-12-11T10:54:08;8.00;69.70
12622;DHT22;6376;48.182;-1.644;2022-12-11T10:56:44;8.00;69.70
12622;DHT22;6376;48.182;-1.644;2022-12-11T10:59:25;8.00;69.70
12622;DHT22;6376;48.182;-1.644;2022-12-11T11:01:53;8.00;69.70
12622;DHT22;6376;48.182;-1.644;2022-12-11T11:04:22;8.00;69.60
12622;DHT22;6376;48.182;-1.644;2022-12-11T11:07:11;8.00;69.60
12622;DHT22;6376;48.182;-1.644;2022-12-11T11:09:37;8.00;70.40
12622;DHT22;6376;48.182;-1.644;2022-12-11T11:12:15;8.00;69.70
12622;DHT22;6376;48.182;-1.644;2022-12-11T11:14:41;8.00;69.50
12622;DHT22;6376;48.182;-1.644;2022-12-11T11:17:14;8.00;69.70
12622;DHT22;6376;48.182;-1.644;2022-12-11T11:19:45;8.00;69.60
12622;DHT22;6376;48.182;-1.644;2022-12-11T11:22:15;8.10;69.70
12622;DHT22;6376;48.182;-1.644;2022-12-11T11:24:46;8.00;69.60
12622;DHT22;6376;48.182;-1.644;2022-12-11T11:30:19;8.00;69.50
12622;DHT22;6376;48.182;-1.644;2022-12-11T11:32:45;8.00;69.70
12622;DHT22;6376;48.182;-1.644;2022-12-11T11:37:39;8.10;69.60
12622;DHT22;6376;48.182;-1.644;2022-12-11T11:40:34;8.10;69.50
12622;DHT22;6376;48.182;-1.644;2022-12-11T11:43:16;8.10;69.60
12622;DHT22;6376;48.182;-1.644;2022-12-11T11:46:11;8.10;69.60
12622;DHT22;6376;48.182;-1.644;2022-12-11T11:51:37;8.10;69.60
12622;DHT22;6376;48.182;-1.644;2022-12-11T11:54:27;8.10;69.50
12622;DHT22;6376;48.182;-1.644;2022-12-11T11:56:55;8.10;69.70
12622;DHT22;6376;48.182;-1.644;2022-12-11T11:59:23;8.10;69.50
12622;DHT22;6376;48.182;-1.644;2022-12-11T12:01:54;8.10;69.70
12622;DHT22;6376;48.182;-1.644;2022-12-11T12:04:20;8.10;69.60
12622;DHT22;6376;48.182;-1.644;2022-12-11T12:09:45;8.10;69.70
12622;DHT22;6376;48.182;-1.644;2022-12-11T12:12:35;8.10;70.40
12622;DHT22;6376;48.182;-1.644;2022-12-11T12:34:32;8.10;69.70
12622;DHT22;6376;48.182;-1.644;2022-12-11T12:47:43;8.20;69.80
12622;DHT22;6376;48.182;-1.644;2022-12-11T12:50:22;8.20;69.80
12622;DHT22;6376;48.182;-1.644;2022-12-11T12:52:50;8.20;69.70
12622;DHT22;6376;48.182;-1.644;2022-12-11T12:55:23;8.20;69.80
12622;DHT22;6376;48.182;-1.644;2022-12-11T12:57:55;8.20;69.70
12622;DHT22;6376;48.182;-1.644;2022-12-11T13:00:40;8.20;69.70
12622;DHT22;6376;48.182;-1.644;2022-12-11T13:05:42;8.20;69.80
12622;DHT22;6376;48.182;-1.644;2022-12-11T13:08:10;8.20;69.80
12622;DHT22;6376;48.182;-1.644;2022-12-11T13:10:39;8.20;69.70
12622;DHT22;6376;48.182;-1.644;2022-12-11T13:13:41;8.20;69.80
12622;DHT22;6376;48.182;-1.644;2022-12-11T13:16:21;8.20;69.80
12622;DHT22;6376;48.182;-1.644;2022-12-11T13:18:48;8.20;69.70
12622;DHT22;6376;48.182;-1.644;2022-12-11T13:21:33;8.20;69.70
12622;DHT22;6376;48.182;-1.644;2022-12-11T13:24:13;8.20;69.70
12622;DHT22;6376;48.182;-1.644;2022-12-11T13:26:40;8.20;69.70
12622;DHT22;6376;48.182;-1.644;2022-12-11T13:29:33;8.20;69.80
12622;DHT22;6376;48.182;-1.644;2022-12-11T13:32:02;8.20;69.80
12622;DHT22;6376;48.182;-1.644;2022-12-11T13:34:35;8.20;69.80
12622;DHT22;6376;48.182;-1.644;2022-12-11T13:37:02;8.20;69.80
12622;DHT22;6376;48.182;-1.644;2022-12-11T13:39:31;8.30;69.80
12622;DHT22;6376;48.182;-1.644;2022-12-11T13:42:04;8.30;70.50
12622;DHT22;6376;48.182;-1.644;2022-12-11T13:44:38;8.20;69.80
12622;DHT22;6376;48.182;-1.644;2022-12-11T13:47:11;8.20;69.80
12622;DHT22;6376;48.182;-1.644;2022-12-11T13:49:40;8.30;69.90
12622;DHT22;6376;48.182;-1.644;2022-12-11T13:52:14;8.30;70.20
12622;DHT22;6376;48.182;-1.644;2022-12-11T13:54:50;8.30;69.80
12622;DHT22;6376;48.182;-1.644;2022-12-11T13:57:18;8.20;69.90
12622;DHT22;6376;48.182;-1.644;2022-12-11T13:59:55;8.30;70.00
12622;DHT22;6376;48.182;-1.644;2022-12-11T14:02:30;8.20;69.90
12622;DHT22;6376;48.182;-1.644;2022-12-11T14:05:02;8.30;70.00
12622;DHT22;6376;48.182;-1.644;2022-12-11T14:07:34;8.20;70.00
12622;DHT22;6376;48.182;-1.644;2022-12-11T14:10:24;8.20;70.00
12622;DHT22;6376;48.182;-1.644;2022-12-11T14:13:05;8.30;70.00
12622;DHT22;6376;48.182;-1.644;2022-12-11T14:15:32;8.30;70.00
12622;DHT22;6376;48.182;-1.644;2022-12-11T14:17:59;8.30;70.00
12622;DHT22;6376;48.182;-1.644;2022-12-11T14:20:30;8.30;70.00
12622;DHT22;6376;48.182;-1.644;2022-12-11T14:23:27;8.30;70.00
12622;DHT22;6376;48.182;-1.644;2022-12-11T14:28:19;8.20;70.00
12622;DHT22;6376;48.182;-1.644;2022-12-11T14:30:52;8.30;70.10
12622;DHT22;6376;48.182;-1.644;2022-12-11T14:33:21;8.20;70.00
12622;DHT22;6376;48.182;-1.644;2022-12-11T14:35:48;8.20;70.10
12622;DHT22;6376;48.182;-1.644;2022-12-11T14:38:23;8.30;70.10
12622;DHT22;6376;48.182;-1.644;2022-12-11T14:40:57;8.30;70.10
12622;DHT22;6376;48.182;-1.644;2022-12-11T14:43:34;8.30;70.20
12622;DHT22;6376;48.182;-1.644;2022-12-11T14:46:06;8.30;70.20
12622;DHT22;6376;48.182;-1.644;2022-12-11T14:48:41;8.30;70.20
12622;DHT22;6376;48.182;-1.644;2022-12-11T14:51:11;8.30;70.20
12622;DHT22;6376;48.182;-1.644;2022-12-11T14:53:45;8.20;70.20
12622;DHT22;6376;48.182;-1.644;2022-12-11T14:56:18;8.30;70.20
12622;DHT22;6376;48.182;-1.644;2022-12-11T14:59:05;8.20;70.20
12622;DHT22;6376;48.182;-1.644;2022-12-11T15:01:34;8.30;70.20
12622;DHT22;6376;48.182;-1.644;2022-12-11T15:04:22;8.30;70.20
12622;DHT22;6376;48.182;-1.644;2022-12-11T15:06:50;8.30;70.20
12622;DHT22;6376;48.182;-1.644;2022-12-11T15:09:20;8.30;70.30
12622;DHT22;6376;48.182;-1.644;2022-12-11T15:11:48;8.30;70.40
12622;DHT22;6376;48.182;-1.644;2022-12-11T15:14:15;8.30;70.30
12622;DHT22;6376;48.182;-1.644;2022-12-11T15:16:42;8.30;70.40
12622;DHT22;6376;48.182;-1.644;2022-12-11T15:19:22;8.30;70.40
12622;DHT22;6376;48.182;-1.644;2022-12-11T15:21:49;8.30;70.40
12622;DHT22;6376;48.182;-1.644;2022-12-11T15:24:41;8.30;70.40
12622;DHT22;6376;48.182;-1.644;2022-12-11T15:35:38;8.20;70.50
12622;DHT22;6376;48.182;-1.644;2022-12-11T15:38:04;8.30;70.50
12622;DHT22;6376;48.182;-1.644;2022-12-11T15:40:30;8.20;70.50
12622;DHT22;6376;48.182;-1.644;2022-12-11T15:42:56;8.20;70.50
12622;DHT22;6376;48.182;-1.644;2022-12-11T15:45:27;8.20;70.50
12622;DHT22;6376;48.182;-1.644;2022-12-11T15:47:54;8.20;70.50
12622;DHT22;6376;48.182;-1.644;2022-12-11T15:50:24;8.20;70.60
12622;DHT22;6376;48.182;-1.644;2022-12-11T15:52:53;8.20;70.60
12622;DHT22;6376;48.182;-1.644;2022-12-11T15:55:19;8.20;70.60
12622;DHT22;6376;48.182;-1.644;2022-12-11T15:57:48;8.20;70.60
12622;DHT22;6376;48.182;-1.644;2022-12-11T16:00:17;8.20;70.60
12622;DHT22;6376;48.182;-1.644;2022-12-11T16:02:46;8.20;70.60
12622;DHT22;6376;48.182;-1.644;2022-12-11T16:05:12;8.20;70.60
12622;DHT22;6376;48.182;-1.644;2022-12-11T16:07:38;8.20;70.60
12622;DHT22;6376;48.182;-1.644;2022-12-11T16:10:05;8.20;70.60
12622;DHT22;6376;48.182;-1.644;2022-12-11T16:12:31;8.20;70.70
12622;DHT22;6376;48.182;-1.644;2022-12-11T16:14:57;8.20;70.70
12622;DHT22;6376;48.182;-1.644;2022-12-11T16:17:22;8.20;70.70
12622;DHT22;6376;48.182;-1.644;2022-12-11T16:19:48;8.20;70.70
12622;DHT22;6376;48.182;-1.644;2022-12-11T16:22:14;8.20;70.70
12622;DHT22;6376;48.182;-1.644;2022-12-11T16:24:41;8.20;70.70
12622;DHT22;6376;48.182;-1.644;2022-12-11T16:27:07;8.20;70.70
12622;DHT22;6376;48.182;-1.644;2022-12-11T16:29:37;8.20;70.70
12622;DHT22;6376;48.182;-1.644;2022-12-11T16:32:04;8.20;70.70
12622;DHT22;6376;48.182;-1.644;2022-12-11T16:34:31;8.20;70.80
12622;DHT22;6376;48.182;-1.644;2022-12-11T16:36:57;8.20;70.70
12622;DHT22;6376;48.182;-1.644;2022-12-11T16:39:23;8.20;70.80
12622;DHT22;6376;48.182;-1.644;2022-12-11T16:41:49;8.20;70.80
12622;DHT22;6376;48.182;-1.644;2022-12-11T16:44:23;8.20;70.70
12622;DHT22;6376;48.182;-1.644;2022-12-11T16:46:48;8.20;70.80
12622;DHT22;6376;48.182;-1.644;2022-12-11T16:49:14;8.20;70.80
12622;DHT22;6376;48.182;-1.644;2022-12-11T16:51:40;8.20;70.80
12622;DHT22;6376;48.182;-1.644;2022-12-11T16:54:06;8.20;70.80
12622;DHT22;6376;48.182;-1.644;2022-12-11T16:56:32;8.20;70.80
12622;DHT22;6376;48.182;-1.644;2022-12-11T16:58:59;8.20;70.80
12622;DHT22;6376;48.182;-1.644;2022-12-11T17:01:28;8.20;70.80
12622;DHT22;6376;48.182;-1.644;2022-12-11T17:03:53;8.20;70.80
12622;DHT22;6376;48.182;-1.644;2022-12-11T17:06:19;8.20;70.80
12622;DHT22;6376;48.182;-1.644;2022-12-11T17:08:45;8.20;70.80
12622;DHT22;6376;48.182;-1.644;2022-12-11T17:11:16;8.20;70.80
12622;DHT22;6376;48.182;-1.644;2022-12-11T17:13:43;8.20;70.80
12622;DHT22;6376;48.182;-1.644;2022-12-11T17:16:14;8.20;70.80
12622;DHT22;6376;48.182;-1.644;2022-12-11T17:18:41;8.20;70.80
12622;DHT22;6376;48.182;-1.644;2022-12-11T17:21:17;8.20;71.60
12622;DHT22;6376;48.182;-1.644;2022-12-11T17:23:44;8.20;70.90
12622;DHT22;6376;48.182;-1.644;2022-12-11T17:26:12;8.20;71.00
12622;DHT22;6376;48.182;-1.644;2022-12-11T17:28:38;8.20;70.90
12622;DHT22;6376;48.182;-1.644;2022-12-11T17:31:06;8.20;70.90
12622;DHT22;6376;48.182;-1.644;2022-12-11T17:33:31;8.20;71.00
12622;DHT22;6376;48.182;-1.644;2022-12-11T17:36:04;8.20;70.90